createdAt,value
2018-10-07T00:01:52.600Z,13.02
2018-10-07T00:04:23.076Z,13.03
2018-10-07T00:06:53.535Z,13.03
2018-10-07T00:09:23.925Z,13.10
2018-10-07T00:11:54.615Z,13.12
2018-10-07T00:14:25.003Z,13.10
2018-10-07T00:16:55.460Z,13.15
2018-10-07T00:19:25.842Z,13.12
2018-10-07T00:21:56.917Z,13.13
2018-10-07T00:24:27.305Z,13.14
2018-10-07T00:26:57.825Z,13.13
2018-10-07T00:29:28.328Z,13.17
2018-10-07T00:32:03.766Z,13.26
2018-10-07T00:34:34.282Z,13.24
2018-10-07T00:37:04.648Z,13.30
2018-10-07T00:39:34.926Z,13.37
2018-10-07T00:42:05.288Z,13.33
2018-10-07T00:44:35.949Z,13.32
2018-10-07T00:47:06.576Z,13.35
2018-10-07T00:49:37.121Z,13.30
2018-10-07T00:52:07.716Z,13.31
2018-10-07T00:54:38.086Z,13.25
2018-10-07T00:57:08.504Z,13.31
2018-10-07T00:59:38.805Z,13.26
2018-10-07T01:02:09.337Z,13.25
2018-10-07T01:04:39.758Z,13.30
2018-10-07T01:07:10.339Z,13.21
2018-10-07T01:09:40.724Z,13.16
2018-10-07T01:12:11.117Z,13.13
2018-10-07T01:14:41.553Z,13.10
2018-10-07T01:17:13.884Z,13.05
2018-10-07T01:19:44.384Z,13.04
2018-10-07T01:22:14.743Z,13.00
2018-10-07T01:24:45.144Z,12.98
2018-10-07T01:27:15.604Z,12.95
2018-10-07T01:29:46.003Z,12.92
2018-10-07T01:32:16.465Z,12.88
2018-10-07T01:34:47.070Z,12.83
2018-10-07T01:37:17.718Z,12.81
2018-10-07T01:39:48.266Z,12.76
2018-10-07T01:42:18.807Z,12.76
2018-10-07T01:44:49.517Z,12.73
2018-10-07T01:47:19.732Z,12.72
2018-10-07T01:49:50.420Z,12.70
2018-10-07T01:52:21.592Z,12.69
2018-10-07T01:54:51.818Z,12.67
2018-10-07T01:57:22.282Z,12.65
2018-10-07T01:59:52.720Z,12.68
2018-10-07T02:02:23.393Z,12.67
2018-10-07T02:04:53.868Z,12.68
2018-10-07T02:07:24.404Z,12.69
2018-10-07T02:09:54.642Z,12.69
2018-10-07T02:12:25.178Z,12.67
2018-10-07T02:14:55.595Z,12.70
2018-10-07T02:17:26.072Z,12.84
2018-10-07T02:19:56.560Z,12.87
2018-10-07T02:22:26.903Z,12.84
2018-10-07T02:24:57.293Z,12.91
2018-10-07T02:27:27.829Z,13.00
2018-10-07T02:29:58.181Z,13.12
2018-10-07T02:32:28.508Z,13.24
2018-10-07T02:34:58.932Z,13.25
2018-10-07T02:37:29.308Z,13.30
2018-10-07T02:39:59.731Z,13.41
2018-10-07T02:42:30.172Z,13.49
2018-10-07T02:45:00.691Z,13.52
2018-10-07T02:47:31.886Z,13.51
2018-10-07T02:50:06.375Z,13.56
2018-10-07T02:52:42.630Z,13.59
2018-10-07T02:55:13.133Z,13.63
2018-10-07T02:57:44.204Z,13.56
2018-10-07T03:00:14.734Z,13.53
2018-10-07T03:02:45.295Z,13.61
2018-10-07T03:05:15.739Z,13.76
2018-10-07T03:07:46.610Z,13.63
2018-10-07T03:10:17.708Z,13.75
2018-10-07T03:12:48.106Z,13.75
2018-10-07T03:15:18.544Z,13.71
2018-10-07T03:17:49.109Z,13.78
2018-10-07T03:20:19.464Z,13.81
2018-10-07T03:22:49.847Z,13.80
2018-10-07T03:25:20.140Z,13.82
2018-10-07T03:27:50.711Z,13.71
2018-10-07T03:30:21.216Z,13.89
2018-10-07T03:32:51.672Z,13.94
2018-10-07T03:35:22.172Z,13.88
2018-10-07T03:37:52.524Z,13.87
2018-10-07T03:40:23.031Z,13.90
2018-10-07T03:42:53.312Z,13.86
2018-10-07T03:45:23.694Z,13.85
2018-10-07T03:47:53.944Z,13.89
2018-10-07T03:50:24.295Z,13.84
2018-10-07T03:52:54.783Z,13.86
2018-10-07T03:55:25.116Z,13.89
2018-10-07T03:57:55.544Z,13.88
2018-10-07T04:00:26.981Z,13.85
2018-10-07T04:02:57.561Z,13.86
2018-10-07T04:05:28.059Z,13.86
2018-10-07T04:07:58.520Z,13.82
2018-10-07T04:10:28.790Z,13.82
2018-10-07T04:12:59.266Z,13.71
2018-10-07T04:15:29.588Z,13.53
2018-10-07T04:18:00.055Z,13.24
2018-10-07T04:20:30.652Z,12.82
2018-10-07T04:23:00.997Z,12.91
2018-10-07T04:25:31.369Z,12.73
2018-10-07T04:28:01.745Z,12.67
2018-10-07T04:30:32.060Z,12.57
2018-10-07T04:33:02.416Z,12.39
2018-10-07T04:35:32.793Z,12.43
2018-10-07T04:38:03.186Z,12.32
2018-10-07T04:40:34.159Z,12.17
2018-10-07T04:43:04.858Z,12.27
2018-10-07T04:45:35.353Z,12.15
2018-10-07T04:48:05.604Z,12.27
2018-10-07T04:50:35.990Z,12.12
2018-10-07T04:53:06.657Z,12.10
2018-10-07T04:55:40.734Z,12.22
2018-10-07T04:58:11.333Z,11.94
2018-10-07T05:00:41.702Z,11.79
2018-10-07T05:03:12.191Z,11.76
2018-10-07T05:05:42.900Z,11.75
2018-10-07T05:08:13.577Z,11.64
2018-10-07T05:10:49.866Z,11.55
2018-10-07T05:13:42.657Z,11.51
2018-10-07T05:16:14.336Z,11.50
2018-10-07T05:18:45.790Z,11.52
2018-10-07T05:21:16.180Z,11.61
2018-10-07T05:23:46.808Z,11.77
2018-10-07T05:26:17.240Z,11.55
2018-10-07T05:28:47.801Z,11.46
2018-10-07T05:31:18.496Z,11.31
2018-10-07T05:33:48.988Z,11.26
2018-10-07T05:36:19.580Z,11.15
2018-10-07T05:38:50.319Z,11.12
2018-10-07T05:41:20.817Z,10.96
2018-10-07T05:43:51.104Z,10.91
2018-10-07T05:46:21.504Z,10.83
2018-10-07T05:48:51.995Z,10.75
2018-10-07T05:51:22.481Z,10.83
2018-10-07T05:53:52.973Z,10.62
2018-10-07T05:56:23.540Z,10.79
2018-10-07T05:58:56.697Z,10.75
2018-10-07T06:01:46.320Z,10.82
2018-10-07T06:04:35.080Z,10.65
2018-10-07T06:07:05.804Z,10.75
2018-10-07T06:09:37.358Z,10.78
2018-10-07T06:12:08.094Z,10.70
2018-10-07T06:14:55.115Z,10.64
2018-10-07T06:17:25.525Z,10.76
2018-10-07T06:19:56.071Z,10.94
2018-10-07T06:22:29.264Z,10.90
2018-10-07T06:24:59.618Z,10.90
2018-10-07T06:27:30.208Z,10.97
2018-10-07T06:30:00.977Z,10.82
2018-10-07T06:32:31.411Z,10.92
2018-10-07T06:35:02.040Z,10.94
2018-10-07T06:37:32.669Z,10.89
2018-10-07T06:40:03.127Z,11.01
2018-10-07T06:42:33.690Z,11.00
2018-10-07T06:45:04.388Z,11.07
2018-10-07T06:47:35.106Z,10.99
2018-10-07T06:50:05.940Z,11.09
2018-10-07T06:52:36.347Z,11.08
2018-10-07T06:55:06.845Z,11.03
2018-10-07T06:57:37.220Z,11.03
2018-10-07T07:00:08.770Z,11.05
2018-10-07T07:02:39.159Z,11.08
2018-10-07T07:05:09.569Z,11.05
2018-10-07T07:07:40.736Z,11.04
2018-10-07T07:10:11.973Z,10.99
2018-10-07T07:12:42.432Z,10.93
2018-10-07T07:15:12.915Z,11.01
2018-10-07T07:17:43.339Z,10.93
2018-10-07T07:20:13.619Z,10.97
2018-10-07T07:22:43.856Z,10.82
2018-10-07T07:25:18.239Z,10.71
2018-10-07T07:27:48.519Z,10.70
2018-10-07T07:30:18.934Z,10.72
2018-10-07T07:32:49.414Z,10.76
2018-10-07T07:35:19.840Z,10.62
2018-10-07T07:37:50.088Z,10.61
2018-10-07T07:40:20.589Z,10.64
2018-10-07T07:42:50.976Z,10.61
2018-10-07T07:45:21.338Z,10.67
2018-10-07T07:47:51.628Z,10.66
2018-10-07T07:50:22.022Z,10.71
2018-10-07T07:52:52.408Z,10.81
2018-10-07T07:55:22.670Z,10.83
2018-10-07T07:57:53.743Z,10.93
2018-10-07T08:00:24.719Z,10.99
2018-10-07T08:02:55.270Z,11.05
2018-10-07T08:05:26.403Z,11.35
2018-10-07T08:07:57.367Z,11.26
2018-10-07T08:10:29.051Z,11.41
2018-10-07T08:13:00.216Z,11.38
2018-10-07T08:15:31.095Z,11.46
2018-10-07T08:18:01.555Z,11.36
2018-10-07T08:20:31.799Z,11.45
2018-10-07T08:23:02.094Z,11.58
2018-10-07T08:25:32.251Z,11.65
2018-10-07T08:28:02.508Z,11.67
2018-10-07T08:30:32.995Z,11.67
2018-10-07T08:33:03.402Z,11.94
2018-10-07T08:35:33.908Z,12.08
2018-10-07T08:38:04.278Z,12.53
2018-10-07T08:40:34.620Z,12.79
2018-10-07T08:43:05.029Z,12.52
2018-10-07T08:45:36.139Z,12.50
2018-10-07T08:48:06.645Z,12.80
2018-10-07T08:50:37.081Z,13.02
2018-10-07T08:53:07.575Z,12.79
2018-10-07T08:55:37.923Z,12.74
2018-10-07T08:58:08.335Z,12.88
2018-10-07T09:00:38.802Z,13.14
2018-10-07T09:03:09.959Z,13.07
2018-10-07T09:05:40.472Z,13.07
2018-10-07T09:08:10.857Z,13.19
2018-10-07T09:10:40.955Z,13.13
2018-10-07T09:13:10.977Z,13.29
2018-10-07T09:15:41.079Z,13.14
2018-10-07T09:18:11.113Z,13.53
2018-10-07T09:20:41.180Z,13.29
2018-10-07T09:23:11.520Z,13.85
2018-10-07T09:25:41.971Z,14.34
2018-10-07T09:28:12.859Z,14.32
2018-10-07T09:30:43.341Z,14.09
2018-10-07T09:33:13.620Z,14.24
2018-10-07T09:35:44.113Z,14.46
2018-10-07T09:38:14.920Z,14.34
2018-10-07T09:40:45.506Z,14.21
2018-10-07T09:43:15.888Z,14.20
2018-10-07T09:45:46.271Z,13.99
2018-10-07T09:48:16.789Z,13.91
2018-10-07T09:50:47.820Z,13.86
2018-10-07T09:53:18.546Z,13.99
2018-10-07T09:55:49.009Z,14.03
2018-10-07T09:58:19.401Z,13.85
2018-10-07T10:00:49.954Z,13.89
2018-10-07T10:03:22.121Z,13.82
2018-10-07T10:05:52.573Z,14.09
2018-10-07T10:08:22.829Z,14.44
2018-10-07T10:10:53.215Z,14.76
2018-10-07T10:13:23.715Z,14.88
2018-10-07T10:15:54.033Z,15.31
2018-10-07T10:18:47.566Z,14.90
2018-10-07T10:21:45.462Z,14.66
2018-10-07T10:24:32.519Z,14.77
2018-10-07T10:27:13.082Z,15.16
2018-10-07T10:29:50.264Z,15.29
2018-10-07T10:32:51.847Z,15.74
2018-10-07T10:35:51.543Z,15.41
2018-10-07T10:38:33.436Z,14.94
2018-10-07T10:41:14.820Z,14.82
2018-10-07T10:43:49.424Z,15.19
2018-10-07T10:46:41.886Z,15.34
2018-10-07T10:49:30.507Z,15.13
2018-10-07T10:52:15.024Z,15.59
2018-10-07T10:54:59.355Z,15.56
2018-10-07T10:57:53.657Z,15.42
2018-10-07T11:00:27.903Z,15.70
2018-10-07T11:03:18.051Z,15.57
2018-10-07T11:07:06.274Z,15.86
2018-10-07T11:09:53.937Z,15.38
2018-10-07T11:12:37.938Z,15.69
2018-10-07T11:15:22.847Z,15.76
2018-10-07T11:18:12.128Z,15.89
2018-10-07T11:20:57.558Z,15.53
2018-10-07T11:23:57.277Z,15.74
2018-10-07T11:26:44.323Z,16.12
2018-10-07T11:30:29.473Z,16.06
2018-10-07T11:34:20.148Z,16.06
2018-10-07T11:38:03.367Z,15.98
2018-10-07T11:40:51.490Z,15.97
2018-10-07T11:43:35.639Z,15.99
2018-10-07T11:46:28.872Z,16.12
2018-10-07T11:49:09.735Z,15.86
2018-10-07T11:51:53.378Z,15.76
2018-10-07T11:54:43.348Z,15.73
2018-10-07T11:57:13.699Z,15.71
2018-10-07T11:59:44.043Z,15.65
2018-10-07T12:02:14.514Z,15.75
2018-10-07T12:04:44.743Z,15.51
2018-10-07T12:07:15.229Z,15.62
2018-10-07T12:09:45.544Z,15.60
2018-10-07T12:12:16.604Z,15.74
2018-10-07T12:14:47.279Z,16.03
2018-10-07T12:17:17.788Z,16.01
2018-10-07T12:19:48.287Z,15.85
2018-10-07T12:22:18.637Z,15.92
2018-10-07T12:24:49.044Z,16.11
2018-10-07T12:27:19.505Z,16.31
2018-10-07T12:29:49.917Z,16.22
2018-10-07T12:32:20.376Z,16.40
2018-10-07T12:34:50.775Z,16.34
2018-10-07T12:37:21.057Z,16.02
2018-10-07T12:39:51.507Z,16.07
2018-10-07T12:42:22.078Z,16.28
2018-10-07T12:44:52.575Z,16.32
2018-10-07T12:47:23.189Z,16.09
2018-10-07T12:49:53.796Z,15.65
2018-10-07T12:52:24.262Z,16.01
2018-10-07T12:54:54.563Z,15.99
2018-10-07T12:57:25.055Z,15.88
2018-10-07T12:59:55.564Z,15.99
2018-10-07T13:02:26.079Z,15.97
2018-10-07T13:04:56.646Z,15.93
2018-10-07T13:07:27.250Z,15.67
2018-10-07T13:09:57.727Z,15.74
2018-10-07T13:12:28.036Z,15.64
2018-10-07T13:14:58.458Z,15.74
2018-10-07T13:17:29.003Z,15.89
2018-10-07T13:19:59.563Z,15.87
2018-10-07T13:22:29.936Z,15.86
2018-10-07T13:25:00.208Z,15.91
2018-10-07T13:27:30.723Z,15.98
2018-10-07T13:30:01.046Z,16.05
2018-10-07T13:32:31.548Z,16.11
2018-10-07T13:35:02.120Z,16.07
2018-10-07T13:37:32.730Z,15.98
2018-10-07T13:40:04.098Z,15.93
2018-10-07T13:45:35.469Z,16.00
2018-10-07T13:48:05.939Z,16.00
2018-10-07T13:50:36.352Z,15.92
2018-10-07T13:53:06.686Z,15.84
2018-10-07T13:55:36.990Z,15.88
2018-10-07T13:58:07.490Z,15.95
2018-10-07T14:00:37.948Z,15.96
2018-10-07T14:03:08.592Z,15.86
2018-10-07T14:05:39.025Z,15.82
2018-10-07T14:08:09.476Z,15.85
2018-10-07T14:10:39.948Z,15.79
2018-10-07T14:13:10.246Z,15.95
2018-10-07T14:15:40.711Z,15.84
2018-10-07T14:18:11.133Z,15.75
2018-10-07T14:20:41.405Z,15.78
2018-10-07T14:23:11.840Z,15.78
2018-10-07T14:25:42.244Z,15.89
2018-10-07T14:28:12.828Z,15.89
2018-10-07T14:30:43.528Z,15.93
2018-10-07T14:33:13.928Z,15.90
2018-10-07T14:35:44.432Z,15.93
2018-10-07T14:38:14.804Z,15.78
2018-10-07T14:40:45.140Z,15.75
2018-10-07T14:43:15.567Z,15.49
2018-10-07T14:45:46.007Z,15.48
2018-10-07T14:48:16.428Z,15.39
2018-10-07T14:50:47.189Z,15.25
2018-10-07T14:53:17.656Z,15.10
2018-10-07T14:55:48.040Z,15.01
2018-10-07T14:58:18.547Z,14.88
2018-10-07T15:00:48.992Z,14.72
2018-10-07T15:03:19.379Z,14.83
2018-10-07T15:05:49.879Z,14.84
2018-10-07T15:08:20.128Z,14.91
2018-10-07T15:10:50.508Z,14.91
2018-10-07T15:13:21.206Z,15.01
2018-10-07T15:15:51.600Z,15.06
2018-10-07T15:18:21.976Z,14.97
2018-10-07T15:20:52.524Z,15.05
2018-10-07T15:23:22.818Z,15.21
2018-10-07T15:25:53.320Z,15.08
2018-10-07T15:28:24.275Z,14.99
2018-10-07T15:30:54.921Z,14.96
2018-10-07T15:33:25.391Z,14.82
2018-10-07T15:35:55.968Z,14.83
2018-10-07T15:38:26.338Z,14.54
2018-10-07T15:40:56.599Z,14.33
2018-10-07T15:43:27.110Z,14.36
2018-10-07T15:45:57.603Z,14.35
2018-10-07T15:48:28.080Z,14.51
2018-10-07T15:50:59.040Z,14.34
2018-10-07T15:53:29.447Z,14.16
2018-10-07T15:55:59.823Z,14.27
2018-10-07T15:58:30.206Z,14.13
2018-10-07T16:01:00.778Z,14.02
2018-10-07T16:03:31.361Z,13.87
2018-10-07T16:06:01.864Z,13.80
2018-10-07T16:08:32.096Z,13.72
2018-10-07T16:11:02.481Z,13.62
2018-10-07T16:13:33.015Z,13.61
2018-10-07T16:16:03.399Z,13.39
2018-10-07T16:18:33.666Z,13.31
2018-10-07T16:21:04.203Z,13.15
2018-10-07T16:23:34.606Z,12.94
2018-10-07T16:26:05.030Z,12.82
2018-10-07T16:28:35.467Z,12.60
2018-10-07T16:31:05.748Z,12.44
2018-10-07T16:33:36.146Z,12.31
2018-10-07T16:36:06.585Z,12.16
2018-10-07T16:38:36.971Z,12.03
2018-10-07T16:41:07.956Z,11.92
2018-10-07T16:43:38.509Z,11.77
2018-10-07T16:46:27.152Z,11.64
2018-10-07T16:48:57.660Z,11.50
2018-10-07T16:51:28.041Z,11.38
2018-10-07T16:53:58.426Z,11.29
2018-10-07T16:56:29.648Z,11.17
2018-10-07T16:59:00.172Z,11.05
2018-10-07T17:01:30.666Z,10.98
2018-10-07T17:04:01.470Z,10.90
2018-10-07T17:06:32.036Z,10.80
2018-10-07T17:09:02.306Z,10.70
2018-10-07T17:11:32.709Z,10.63
2018-10-07T17:14:03.273Z,10.55
2018-10-07T17:16:33.868Z,10.53
2018-10-07T17:19:04.231Z,10.40
2018-10-07T17:21:34.611Z,10.32
2018-10-07T17:24:05.163Z,10.24
2018-10-07T17:26:35.843Z,10.16
2018-10-07T17:29:06.703Z,10.09
2018-10-07T17:31:37.145Z,10.01
2018-10-07T17:34:07.761Z,9.96
2018-10-07T17:36:38.337Z,9.88
2018-10-07T17:39:11.163Z,9.75
2018-10-07T17:41:41.844Z,9.67
2018-10-07T17:44:12.209Z,9.60
2018-10-07T17:46:42.815Z,9.46
2018-10-07T17:49:13.365Z,9.42
2018-10-07T17:51:44.289Z,9.32
2018-10-07T17:54:14.507Z,9.23
2018-10-07T17:56:46.009Z,9.16
2018-10-07T17:59:16.663Z,9.08
2018-10-07T18:01:47.310Z,9.05
2018-10-07T18:04:17.683Z,8.96
2018-10-07T18:06:48.125Z,8.87
2018-10-07T18:09:18.327Z,8.85
2018-10-07T18:11:48.769Z,8.87
2018-10-07T18:14:19.091Z,8.85
2018-10-07T18:16:49.420Z,8.84
2018-10-07T18:19:19.714Z,8.78
2018-10-07T18:21:50.416Z,8.76
2018-10-07T18:24:21.016Z,8.70
2018-10-07T18:26:51.274Z,8.63
2018-10-07T18:29:21.640Z,8.62
2018-10-07T18:31:52.154Z,8.59
2018-10-07T18:34:22.823Z,8.55
2018-10-07T18:36:53.211Z,8.55
2018-10-07T18:39:23.568Z,8.54
2018-10-07T18:41:54.040Z,8.48
2018-10-07T18:44:24.435Z,8.39
2018-10-07T18:46:54.748Z,8.35
2018-10-07T18:49:27.224Z,8.28
2018-10-07T18:51:57.631Z,8.25
2018-10-07T18:54:28.705Z,8.23
2018-10-07T18:57:00.005Z,8.21
2018-10-07T18:59:30.330Z,8.18
2018-10-07T19:02:00.823Z,8.12
2018-10-07T19:04:31.338Z,8.06
2018-10-07T19:07:02.511Z,7.97
2018-10-07T19:09:32.961Z,7.93
2018-10-07T19:12:03.973Z,7.88
2018-10-07T19:14:34.874Z,7.83
2018-10-07T19:17:05.416Z,7.80
2018-10-07T19:19:36.132Z,7.77
2018-10-07T19:22:06.572Z,7.77
2018-10-07T19:24:36.984Z,7.69
2018-10-07T19:27:07.708Z,7.71
2018-10-07T19:29:38.171Z,7.64
2018-10-07T19:32:08.503Z,7.68
2018-10-07T19:34:39.004Z,7.64
2018-10-07T19:37:09.679Z,7.64
2018-10-07T19:39:39.975Z,7.58
2018-10-07T19:42:11.286Z,7.53
2018-10-07T19:44:41.678Z,7.49
2018-10-07T19:47:11.883Z,7.41
2018-10-07T19:49:42.433Z,7.37
2018-10-07T19:52:12.878Z,7.31
2018-10-07T19:54:43.357Z,7.26
2018-10-07T19:57:13.760Z,7.19
2018-10-07T19:59:44.137Z,7.10
2018-10-07T20:02:14.807Z,7.02
2018-10-07T20:04:45.292Z,6.94
2018-10-07T20:07:15.748Z,6.86
2018-10-07T20:09:46.171Z,6.75
2018-10-07T20:12:16.424Z,6.74
2018-10-07T20:14:46.783Z,6.72
2018-10-07T20:17:17.166Z,6.66
2018-10-07T20:19:47.486Z,6.57
2018-10-07T20:22:18.707Z,6.58
2018-10-07T20:24:49.171Z,6.54
2018-10-07T20:27:19.627Z,6.45
2018-10-07T20:29:49.940Z,6.42
2018-10-07T20:32:20.359Z,6.35
2018-10-07T20:34:50.670Z,6.33
2018-10-07T20:37:21.236Z,6.20
2018-10-07T20:39:51.699Z,6.25
2018-10-07T20:42:22.289Z,6.26
2018-10-07T20:44:52.498Z,6.24
2018-10-07T20:47:22.852Z,6.22
2018-10-07T20:49:53.164Z,6.29
2018-10-07T20:52:23.570Z,6.21
2018-10-07T20:54:53.899Z,6.25
2018-10-07T20:57:24.269Z,6.27
2018-10-07T20:59:54.592Z,6.23
2018-10-07T21:02:25.047Z,6.23
2018-10-07T21:04:55.543Z,6.28
2018-10-07T21:07:25.886Z,6.31
2018-10-07T21:09:56.287Z,6.24
2018-10-07T21:12:26.653Z,6.32
2018-10-07T21:14:57.070Z,6.23
2018-10-07T21:17:27.332Z,6.19
2018-10-07T21:19:57.837Z,6.14
2018-10-07T21:22:28.377Z,6.02
2018-10-07T21:24:58.816Z,5.94
2018-10-07T21:27:29.346Z,5.94
2018-10-07T21:29:59.531Z,6.00
2018-10-07T21:32:29.898Z,5.96
2018-10-07T21:35:00.296Z,5.94
2018-10-07T21:37:30.576Z,5.97
2018-10-07T21:40:01.891Z,5.96
2018-10-07T21:42:32.140Z,5.93
2018-10-07T21:45:02.550Z,5.93
2018-10-07T21:47:32.869Z,5.82
2018-10-07T21:50:03.213Z,5.84
2018-10-07T21:52:33.746Z,5.79
2018-10-07T21:55:03.976Z,5.72
2018-10-07T21:57:34.316Z,5.74
2018-10-07T22:00:05.515Z,5.70
2018-10-07T22:02:35.790Z,5.72
2018-10-07T22:05:06.444Z,5.66
2018-10-07T22:07:37.052Z,5.59
2018-10-07T22:10:07.595Z,5.58
2018-10-07T22:12:37.953Z,5.53
2018-10-07T22:15:08.583Z,5.45
2018-10-07T22:17:38.865Z,5.39
2018-10-07T22:20:09.341Z,5.47
2018-10-07T22:22:39.863Z,5.48
2018-10-07T22:25:10.433Z,5.41
2018-10-07T22:27:41.023Z,5.35
2018-10-07T22:30:11.721Z,5.33
2018-10-07T22:32:42.191Z,5.29
2018-10-07T22:35:12.491Z,5.31
2018-10-07T22:37:42.849Z,5.28
2018-10-07T22:40:13.320Z,5.28
2018-10-07T22:42:43.802Z,5.25
2018-10-07T22:45:14.215Z,5.30
2018-10-07T22:47:44.563Z,5.26
2018-10-07T22:50:14.952Z,5.29
2018-10-07T22:52:45.318Z,5.26
2018-10-07T22:55:15.730Z,5.25
2018-10-07T22:57:46.088Z,5.21
2018-10-07T23:00:16.423Z,5.22
2018-10-07T23:02:46.819Z,5.20
2018-10-07T23:05:17.344Z,5.16
2018-10-07T23:07:47.811Z,5.21
2018-10-07T23:10:18.105Z,5.23
2018-10-07T23:12:48.595Z,5.19
2018-10-07T23:15:19.043Z,5.14
2018-10-07T23:17:49.543Z,5.09
2018-10-07T23:20:20.163Z,5.08
2018-10-07T23:22:50.612Z,5.07
2018-10-07T23:25:20.988Z,5.18
2018-10-07T23:27:51.247Z,5.09
2018-10-07T23:30:21.698Z,5.04
2018-10-07T23:32:52.260Z,5.02
2018-10-07T23:35:22.618Z,5.04
2018-10-07T23:37:52.988Z,5.04
2018-10-07T23:40:23.329Z,5.02
2018-10-07T23:42:53.749Z,5.00
2018-10-07T23:45:25.156Z,5.04
2018-10-07T23:47:55.506Z,4.95
2018-10-07T23:50:25.928Z,4.96
2018-10-07T23:52:56.292Z,4.87
2018-10-07T23:55:26.628Z,4.91
2018-10-07T23:57:56.917Z,4.89
